sensor_id;sensor_type;location;lat;lon;timestamp;temperature;humidity
19110;DHT22;9687;50.836;12.060;2024-02-15T00:01:10;11.60;96.10
19110;DHT22;9687;50.836;12.060;2024-02-15T00:03:38;11.60;96.10
19110;DHT22;9687;50.836;12.060;2024-02-15T00:06:06;11.60;96.20
19110;DHT22;9687;50.836;12.060;2024-02-15T00:08:35;11.60;96.20
19110;DHT22;9687;50.836;12.060;2024-02-15T00:11:04;11.60;96.30
19110;DHT22;9687;50.836;12.060;2024-02-15T00:13:32;11.60;96.30
19110;DHT22;9687;50.836;12.060;2024-02-15T00:16:00;11.60;96.30
19110;DHT22;9687;50.836;12.060;2024-02-15T00:18:29;11.60;96.30
19110;DHT22;9687;50.836;12.060;2024-02-15T00:20:58;11.60;96.30
19110;DHT22;9687;50.836;12.060;2024-02-15T00:23:27;11.60;96.30
19110;DHT22;9687;50.836;12.060;2024-02-15T00:25:56;11.60;96.30
19110;DHT22;9687;50.836;12.060;2024-02-15T00:28:25;11.60;96.30
19110;DHT22;9687;50.836;12.060;2024-02-15T00:30:55;11.60;96.30
19110;DHT22;9687;50.836;12.060;2024-02-15T00:33:27;11.60;96.30
19110;DHT22;9687;50.836;12.060;2024-02-15T00:35:55;11.60;96.30
19110;DHT22;9687;50.836;12.060;2024-02-15T00:38:23;11.60;96.30
19110;DHT22;9687;50.836;12.060;2024-02-15T00:40:50;11.60;96.30
19110;DHT22;9687;50.836;12.060;2024-02-15T00:43:20;11.70;96.40
19110;DHT22;9687;50.836;12.060;2024-02-15T00:45:47;11.70;96.40
19110;DHT22;9687;50.836;12.060;2024-02-15T00:48:14;11.70;96.40
19110;DHT22;9687;50.836;12.060;2024-02-15T00:50:42;11.70;96.40
19110;DHT22;9687;50.836;12.060;2024-02-15T00:53:09;11.70;96.40
19110;DHT22;9687;50.836;12.060;2024-02-15T00:55:38;11.70;96.40
19110;DHT22;9687;50.836;12.060;2024-02-15T00:58:08;11.70;96.50
19110;DHT22;9687;50.836;12.060;2024-02-15T01:00:38;11.70;96.50
19110;DHT22;9687;50.836;12.060;2024-02-15T01:03:06;11.70;96.60
19110;DHT22;9687;50.836;12.060;2024-02-15T01:05:34;11.70;96.60
19110;DHT22;9687;50.836;12.060;2024-02-15T01:08:02;11.70;96.70
19110;DHT22;9687;50.836;12.060;2024-02-15T01:10:30;11.70;96.70
19110;DHT22;9687;50.836;12.060;2024-02-15T01:12:58;11.70;96.70
19110;DHT22;9687;50.836;12.060;2024-02-15T01:15:28;11.70;96.70
19110;DHT22;9687;50.836;12.060;2024-02-15T01:17:57;11.70;96.70
19110;DHT22;9687;50.836;12.060;2024-02-15T01:20:26;11.70;96.70
19110;DHT22;9687;50.836;12.060;2024-02-15T01:22:55;11.70;96.70
19110;DHT22;9687;50.836;12.060;2024-02-15T01:25:23;11.70;96.70
19110;DHT22;9687;50.836;12.060;2024-02-15T01:27:51;11.70;96.80
19110;DHT22;9687;50.836;12.060;2024-02-15T01:30:19;11.70;96.90
19110;DHT22;9687;50.836;12.060;2024-02-15T01:32:48;11.70;96.90
19110;DHT22;9687;50.836;12.060;2024-02-15T01:35:17;11.70;96.90
19110;DHT22;9687;50.836;12.060;2024-02-15T01:37:45;11.70;96.90
19110;DHT22;9687;50.836;12.060;2024-02-15T01:40:14;11.70;97.00
19110;DHT22;9687;50.836;12.060;2024-02-15T01:42:45;11.70;97.00
19110;DHT22;9687;50.836;12.060;2024-02-15T01:45:13;11.70;97.00
19110;DHT22;9687;50.836;12.060;2024-02-15T01:47:42;11.70;97.10
19110;DHT22;9687;50.836;12.060;2024-02-15T01:50:12;11.70;97.10
19110;DHT22;9687;50.836;12.060;2024-02-15T01:52:42;11.70;97.10
19110;DHT22;9687;50.836;12.060;2024-02-15T01:55:13;11.70;97.10
19110;DHT22;9687;50.836;12.060;2024-02-15T01:57:43;11.70;97.10
19110;DHT22;9687;50.836;12.060;2024-02-15T02:00:11;11.70;97.20
19110;DHT22;9687;50.836;12.060;2024-02-15T02:02:41;11.80;97.20
19110;DHT22;9687;50.836;12.060;2024-02-15T02:05:09;11.70;97.30
19110;DHT22;9687;50.836;12.060;2024-02-15T02:07:37;11.70;97.30
19110;DHT22;9687;50.836;12.060;2024-02-15T02:10:07;11.80;97.30
19110;DHT22;9687;50.836;12.060;2024-02-15T02:12:37;11.80;97.30
19110;DHT22;9687;50.836;12.060;2024-02-15T02:15:05;11.80;97.30
19110;DHT22;9687;50.836;12.060;2024-02-15T02:17:35;11.80;97.30
19110;DHT22;9687;50.836;12.060;2024-02-15T02:20:04;11.80;97.30
19110;DHT22;9687;50.836;12.060;2024-02-15T02:22:35;11.80;97.30
19110;DHT22;9687;50.836;12.060;2024-02-15T02:25:05;11.80;97.30
19110;DHT22;9687;50.836;12.060;2024-02-15T02:27:35;11.80;97.30
19110;DHT22;9687;50.836;12.060;2024-02-15T02:30:04;11.80;97.40
19110;DHT22;9687;50.836;12.060;2024-02-15T02:32:38;11.80;97.40
19110;DHT22;9687;50.836;12.060;2024-02-15T02:35:06;11.80;97.40
19110;DHT22;9687;50.836;12.060;2024-02-15T02:37:37;11.80;97.30
19110;DHT22;9687;50.836;12.060;2024-02-15T02:40:07;11.80;97.40
19110;DHT22;9687;50.836;12.060;2024-02-15T02:42:36;11.90;97.50
19110;DHT22;9687;50.836;12.060;2024-02-15T02:45:05;11.80;97.40
19110;DHT22;9687;50.836;12.060;2024-02-15T02:47:33;11.80;97.40
19110;DHT22;9687;50.836;12.060;2024-02-15T02:50:00;11.90;97.40
19110;DHT22;9687;50.836;12.060;2024-02-15T02:52:28;11.90;97.50
19110;DHT22;9687;50.836;12.060;2024-02-15T02:54:56;11.90;97.50
19110;DHT22;9687;50.836;12.060;2024-02-15T02:57:25;11.90;97.50
19110;DHT22;9687;50.836;12.060;2024-02-15T02:59:53;11.90;97.50
19110;DHT22;9687;50.836;12.060;2024-02-15T03:02:21;11.90;97.50
19110;DHT22;9687;50.836;12.060;2024-02-15T03:04:52;11.90;97.50
19110;DHT22;9687;50.836;12.060;2024-02-15T03:07:24;11.90;97.60
19110;DHT22;9687;50.836;12.060;2024-02-15T03:09:53;11.90;97.60
19110;DHT22;9687;50.836;12.060;2024-02-15T03:12:20;11.90;97.60
19110;DHT22;9687;50.836;12.060;2024-02-15T03:14:49;11.90;97.60
19110;DHT22;9687;50.836;12.060;2024-02-15T03:17:17;11.90;97.60
19110;DHT22;9687;50.836;12.060;2024-02-15T03:19:45;11.80;97.60
19110;DHT22;9687;50.836;12.060;2024-02-15T03:22:15;11.90;97.60
19110;DHT22;9687;50.836;12.060;2024-02-15T03:24:42;11.90;97.60
19110;DHT22;9687;50.836;12.060;2024-02-15T03:27:09;11.90;97.60
19110;DHT22;9687;50.836;12.060;2024-02-15T03:29:39;11.90;97.60
19110;DHT22;9687;50.836;12.060;2024-02-15T03:32:09;11.90;97.60
19110;DHT22;9687;50.836;12.060;2024-02-15T03:34:37;11.90;97.60
19110;DHT22;9687;50.836;12.060;2024-02-15T03:37:06;11.90;97.60
19110;DHT22;9687;50.836;12.060;2024-02-15T03:39:36;11.90;97.60
19110;DHT22;9687;50.836;12.060;2024-02-15T03:42:04;11.90;97.60
19110;DHT22;9687;50.836;12.060;2024-02-15T03:44:31;11.90;97.70
19110;DHT22;9687;50.836;12.060;2024-02-15T03:46:58;11.80;97.70
19110;DHT22;9687;50.836;12.060;2024-02-15T03:49:29;11.80;97.80
19110;DHT22;9687;50.836;12.060;2024-02-15T03:51:58;11.80;97.90
19110;DHT22;9687;50.836;12.060;2024-02-15T03:54:28;11.70;98.00
19110;DHT22;9687;50.836;12.060;2024-02-15T03:56:57;11.70;98.10
19110;DHT22;9687;50.836;12.060;2024-02-15T03:59:27;11.70;98.20
19110;DHT22;9687;50.836;12.060;2024-02-15T04:01:55;11.70;98.20
19110;DHT22;9687;50.836;12.060;2024-02-15T04:04:26;11.70;98.30
19110;DHT22;9687;50.836;12.060;2024-02-15T04:06:59;11.60;98.30
19110;DHT22;9687;50.836;12.060;2024-02-15T04:09:28;11.70;98.40
19110;DHT22;9687;50.836;12.060;2024-02-15T04:11:56;11.60;98.40
19110;DHT22;9687;50.836;12.060;2024-02-15T04:14:25;11.70;98.40
19110;DHT22;9687;50.836;12.060;2024-02-15T04:16:53;11.70;98.40
19110;DHT22;9687;50.836;12.060;2024-02-15T04:19:23;11.70;98.40
19110;DHT22;9687;50.836;12.060;2024-02-15T04:21:51;11.70;98.40
19110;DHT22;9687;50.836;12.060;2024-02-15T04:24:21;11.70;98.40
19110;DHT22;9687;50.836;12.060;2024-02-15T04:26:51;11.70;98.40
19110;DHT22;9687;50.836;12.060;2024-02-15T04:29:19;11.70;98.30
19110;DHT22;9687;50.836;12.060;2024-02-15T04:31:47;11.70;98.40
19110;DHT22;9687;50.836;12.060;2024-02-15T04:34:16;11.70;98.40
19110;DHT22;9687;50.836;12.060;2024-02-15T04:36:45;11.70;98.40
19110;DHT22;9687;50.836;12.060;2024-02-15T04:39:17;11.70;98.40
19110;DHT22;9687;50.836;12.060;2024-02-15T04:41:52;11.70;98.40
19110;DHT22;9687;50.836;12.060;2024-02-15T04:44:22;11.70;98.40
19110;DHT22;9687;50.836;12.060;2024-02-15T04:46:53;11.70;98.50
19110;DHT22;9687;50.836;12.060;2024-02-15T04:49:22;11.70;98.50
19110;DHT22;9687;50.836;12.060;2024-02-15T04:51:50;11.70;98.50
19110;DHT22;9687;50.836;12.060;2024-02-15T04:54:18;11.80;98.80
19110;DHT22;9687;50.836;12.060;2024-02-15T04:56:47;11.80;98.50
19110;DHT22;9687;50.836;12.060;2024-02-15T04:59:21;11.80;98.50
19110;DHT22;9687;50.836;12.060;2024-02-15T05:01:52;11.80;98.50
19110;DHT22;9687;50.836;12.060;2024-02-15T05:04:19;11.80;98.60
19110;DHT22;9687;50.836;12.060;2024-02-15T05:06:46;11.80;98.50
19110;DHT22;9687;50.836;12.060;2024-02-15T05:09:13;11.80;98.60
19110;DHT22;9687;50.836;12.060;2024-02-15T05:11:44;11.80;98.60
19110;DHT22;9687;50.836;12.060;2024-02-15T05:14:16;11.80;98.60
19110;DHT22;9687;50.836;12.060;2024-02-15T05:16:46;11.80;98.60
19110;DHT22;9687;50.836;12.060;2024-02-15T05:19:14;11.80;98.60
19110;DHT22;9687;50.836;12.060;2024-02-15T05:21:44;11.80;98.60
19110;DHT22;9687;50.836;12.060;2024-02-15T05:24:12;11.80;98.60
19110;DHT22;9687;50.836;12.060;2024-02-15T05:26:43;11.80;98.60
19110;DHT22;9687;50.836;12.060;2024-02-15T05:29:13;11.80;98.60
19110;DHT22;9687;50.836;12.060;2024-02-15T05:31:43;11.80;98.60
19110;DHT22;9687;50.836;12.060;2024-02-15T05:34:12;11.80;98.70
19110;DHT22;9687;50.836;12.060;2024-02-15T05:36:40;11.80;98.70
19110;DHT22;9687;50.836;12.060;2024-02-15T05:39:08;11.80;98.70
19110;DHT22;9687;50.836;12.060;2024-02-15T05:41:38;11.80;98.70
19110;DHT22;9687;50.836;12.060;2024-02-15T05:44:07;11.80;98.70
19110;DHT22;9687;50.836;12.060;2024-02-15T05:46:36;11.80;98.70
19110;DHT22;9687;50.836;12.060;2024-02-15T05:49:06;11.80;98.80
19110;DHT22;9687;50.836;12.060;2024-02-15T05:51:40;11.80;98.80
19110;DHT22;9687;50.836;12.060;2024-02-15T05:54:08;11.80;98.90
19110;DHT22;9687;50.836;12.060;2024-02-15T05:56:35;11.80;98.90
19110;DHT22;9687;50.836;12.060;2024-02-15T05:59:04;11.80;99.00
19110;DHT22;9687;50.836;12.060;2024-02-15T06:01:37;11.80;99.00
19110;DHT22;9687;50.836;12.060;2024-02-15T06:04:06;11.80;99.00
19110;DHT22;9687;50.836;12.060;2024-02-15T06:06:33;11.80;99.10
19110;DHT22;9687;50.836;12.060;2024-02-15T06:09:03;11.80;99.10
19110;DHT22;9687;50.836;12.060;2024-02-15T06:11:32;11.80;99.10
19110;DHT22;9687;50.836;12.060;2024-02-15T06:13:59;11.80;99.20
19110;DHT22;9687;50.836;12.060;2024-02-15T06:16:27;11.80;99.30
19110;DHT22;9687;50.836;12.060;2024-02-15T06:18:55;11.80;99.70
19110;DHT22;9687;50.836;12.060;2024-02-15T06:21:24;11.80;99.40
19110;DHT22;9687;50.836;12.060;2024-02-15T06:23:52;11.80;99.40
19110;DHT22;9687;50.836;12.060;2024-02-15T06:26:23;11.80;99.50
19110;DHT22;9687;50.836;12.060;2024-02-15T06:28:50;11.80;99.50
19110;DHT22;9687;50.836;12.060;2024-02-15T06:31:35;11.80;99.50
19110;DHT22;9687;50.836;12.060;2024-02-15T06:34:20;11.80;99.50
19110;DHT22;9687;50.836;12.060;2024-02-15T06:37:06;11.80;99.50
19110;DHT22;9687;50.836;12.060;2024-02-15T06:39:51;11.80;99.60
19110;DHT22;9687;50.836;12.060;2024-02-15T06:42:21;11.80;99.70
19110;DHT22;9687;50.836;12.060;2024-02-15T06:44:51;11.80;99.70
19110;DHT22;9687;50.836;12.060;2024-02-15T06:47:18;11.80;99.80
19110;DHT22;9687;50.836;12.060;2024-02-15T06:49:47;11.90;99.80
19110;DHT22;9687;50.836;12.060;2024-02-15T06:52:17;11.90;99.80
19110;DHT22;9687;50.836;12.060;2024-02-15T06:54:45;11.90;99.80
19110;DHT22;9687;50.836;12.060;2024-02-15T06:57:13;11.90;99.80
19110;DHT22;9687;50.836;12.060;2024-02-15T06:59:45;11.90;99.80
19110;DHT22;9687;50.836;12.060;2024-02-15T07:02:12;11.90;99.80
19110;DHT22;9687;50.836;12.060;2024-02-15T07:04:40;11.90;99.90
19110;DHT22;9687;50.836;12.060;2024-02-15T07:07:12;12.00;99.90
19110;DHT22;9687;50.836;12.060;2024-02-15T07:09:41;12.00;99.90
19110;DHT22;9687;50.836;12.060;2024-02-15T07:12:11;11.90;99.90
19110;DHT22;9687;50.836;12.060;2024-02-15T07:14:40;12.00;99.90
19110;DHT22;9687;50.836;12.060;2024-02-15T07:17:10;12.00;99.90
19110;DHT22;9687;50.836;12.060;2024-02-15T07:19:42;12.00;99.90
19110;DHT22;9687;50.836;12.060;2024-02-15T07:22:11;12.10;99.90
19110;DHT22;9687;50.836;12.060;2024-02-15T07:24:40;12.10;99.90
19110;DHT22;9687;50.836;12.060;2024-02-15T07:27:07;12.10;99.90
19110;DHT22;9687;50.836;12.060;2024-02-15T07:29:35;12.10;99.90
19110;DHT22;9687;50.836;12.060;2024-02-15T07:32:04;12.10;99.90
19110;DHT22;9687;50.836;12.060;2024-02-15T07:34:35;12.20;99.90
19110;DHT22;9687;50.836;12.060;2024-02-15T07:37:03;12.20;99.90
19110;DHT22;9687;50.836;12.060;2024-02-15T07:39:30;12.30;99.90
19110;DHT22;9687;50.836;12.060;2024-02-15T07:41:58;12.30;99.90
19110;DHT22;9687;50.836;12.060;2024-02-15T07:44:27;12.30;99.90
19110;DHT22;9687;50.836;12.060;2024-02-15T07:46:56;12.40;99.90
19110;DHT22;9687;50.836;12.060;2024-02-15T07:49:23;12.40;99.90
19110;DHT22;9687;50.836;12.060;2024-02-15T07:51:53;12.50;99.90
19110;DHT22;9687;50.836;12.060;2024-02-15T07:54:22;12.60;99.90
19110;DHT22;9687;50.836;12.060;2024-02-15T07:56:51;12.60;99.90
19110;DHT22;9687;50.836;12.060;2024-02-15T07:59:20;12.70;99.90
19110;DHT22;9687;50.836;12.060;2024-02-15T08:01:48;12.70;99.90
19110;DHT22;9687;50.836;12.060;2024-02-15T08:04:17;12.80;99.90
19110;DHT22;9687;50.836;12.060;2024-02-15T08:06:45;12.80;99.90
19110;DHT22;9687;50.836;12.060;2024-02-15T08:09:18;12.80;99.90
19110;DHT22;9687;50.836;12.060;2024-02-15T08:11:48;12.80;99.90
19110;DHT22;9687;50.836;12.060;2024-02-15T08:14:15;12.80;99.90
19110;DHT22;9687;50.836;12.060;2024-02-15T08:16:42;12.80;99.90
19110;DHT22;9687;50.836;12.060;2024-02-15T08:19:10;12.80;99.90
19110;DHT22;9687;50.836;12.060;2024-02-15T08:21:39;12.80;99.90
19110;DHT22;9687;50.836;12.060;2024-02-15T08:24:13;12.80;99.90
19110;DHT22;9687;50.836;12.060;2024-02-15T08:26:43;12.80;99.90
19110;DHT22;9687;50.836;12.060;2024-02-15T08:29:11;12.80;99.90
19110;DHT22;9687;50.836;12.060;2024-02-15T08:31:40;12.80;99.90
19110;DHT22;9687;50.836;12.060;2024-02-15T08:34:08;12.80;99.90
19110;DHT22;9687;50.836;12.060;2024-02-15T08:36:40;12.80;99.90
19110;DHT22;9687;50.836;12.060;2024-02-15T08:39:07;12.80;99.90
19110;DHT22;9687;50.836;12.060;2024-02-15T08:41:38;12.80;99.90
19110;DHT22;9687;50.836;12.060;2024-02-15T08:44:07;12.80;99.90
19110;DHT22;9687;50.836;12.060;2024-02-15T08:46:37;12.80;99.90
19110;DHT22;9687;50.836;12.060;2024-02-15T08:49:04;12.80;99.90
19110;DHT22;9687;50.836;12.060;2024-02-15T08:51:33;12.80;99.90
19110;DHT22;9687;50.836;12.060;2024-02-15T08:54:00;12.90;99.90
19110;DHT22;9687;50.836;12.060;2024-02-15T08:56:29;12.90;99.90
19110;DHT22;9687;50.836;12.060;2024-02-15T08:59:02;13.00;99.90
19110;DHT22;9687;50.836;12.060;2024-02-15T09:01:31;13.00;99.90
19110;DHT22;9687;50.836;12.060;2024-02-15T09:04:00;13.00;99.90
19110;DHT22;9687;50.836;12.060;2024-02-15T09:06:29;13.10;99.90
19110;DHT22;9687;50.836;12.060;2024-02-15T09:08:58;13.20;99.90
19110;DHT22;9687;50.836;12.060;2024-02-15T09:11:28;13.10;99.90
19110;DHT22;9687;50.836;12.060;2024-02-15T09:13:56;13.00;99.90
19110;DHT22;9687;50.836;12.060;2024-02-15T09:16:25;13.10;99.90
19110;DHT22;9687;50.836;12.060;2024-02-15T09:18:55;13.10;99.90
19110;DHT22;9687;50.836;12.060;2024-02-15T09:21:28;13.20;99.90
19110;DHT22;9687;50.836;12.060;2024-02-15T09:23:58;13.20;99.90
19110;DHT22;9687;50.836;12.060;2024-02-15T09:26:25;13.20;99.90
19110;DHT22;9687;50.836;12.060;2024-02-15T09:28:53;13.30;99.90
19110;DHT22;9687;50.836;12.060;2024-02-15T09:31:20;13.30;99.90
19110;DHT22;9687;50.836;12.060;2024-02-15T09:33:51;13.30;99.90
19110;DHT22;9687;50.836;12.060;2024-02-15T09:36:20;13.40;99.90
19110;DHT22;9687;50.836;12.060;2024-02-15T09:38:48;13.40;99.90
19110;DHT22;9687;50.836;12.060;2024-02-15T09:41:15;13.40;99.90
19110;DHT22;9687;50.836;12.060;2024-02-15T09:43:44;13.50;99.90
19110;DHT22;9687;50.836;12.060;2024-02-15T09:46:20;13.40;99.90
19110;DHT22;9687;50.836;12.060;2024-02-15T09:48:50;13.50;99.90
19110;DHT22;9687;50.836;12.060;2024-02-15T09:51:25;13.50;99.90
19110;DHT22;9687;50.836;12.060;2024-02-15T09:53:53;13.60;99.90
19110;DHT22;9687;50.836;12.060;2024-02-15T09:56:23;13.70;99.90
19110;DHT22;9687;50.836;12.060;2024-02-15T09:58:52;13.70;99.90
19110;DHT22;9687;50.836;12.060;2024-02-15T10:01:22;13.80;99.90
19110;DHT22;9687;50.836;12.060;2024-02-15T10:03:51;13.80;99.90
19110;DHT22;9687;50.836;12.060;2024-02-15T10:06:18;13.90;99.90
19110;DHT22;9687;50.836;12.060;2024-02-15T10:08:48;13.90;99.90
19110;DHT22;9687;50.836;12.060;2024-02-15T10:11:15;14.00;99.90
19110;DHT22;9687;50.836;12.060;2024-02-15T10:13:42;14.00;99.90
19110;DHT22;9687;50.836;12.060;2024-02-15T10:16:15;14.00;99.90
19110;DHT22;9687;50.836;12.060;2024-02-15T10:18:43;14.00;99.90
19110;DHT22;9687;50.836;12.060;2024-02-15T10:21:10;14.10;99.90
19110;DHT22;9687;50.836;12.060;2024-02-15T10:23:59;14.10;99.90
19110;DHT22;9687;50.836;12.060;2024-02-15T10:26:31;14.20;99.90
19110;DHT22;9687;50.836;12.060;2024-02-15T10:29:05;14.20;99.90
19110;DHT22;9687;50.836;12.060;2024-02-15T10:31:35;14.30;99.90
19110;DHT22;9687;50.836;12.060;2024-02-15T10:34:04;14.30;99.90
19110;DHT22;9687;50.836;12.060;2024-02-15T10:36:35;14.30;99.90
19110;DHT22;9687;50.836;12.060;2024-02-15T10:41:51;14.40;99.90
19110;DHT22;9687;50.836;12.060;2024-02-15T10:44:19;14.40;99.90
19110;DHT22;9687;50.836;12.060;2024-02-15T10:46:47;14.40;99.90
19110;DHT22;9687;50.836;12.060;2024-02-15T10:49:18;14.40;99.90
19110;DHT22;9687;50.836;12.060;2024-02-15T10:51:48;14.40;99.90
19110;DHT22;9687;50.836;12.060;2024-02-15T10:54:19;14.50;99.90
19110;DHT22;9687;50.836;12.060;2024-02-15T10:56:52;14.50;99.90
19110;DHT22;9687;50.836;12.060;2024-02-15T10:59:24;14.50;99.90
19110;DHT22;9687;50.836;12.060;2024-02-15T11:01:57;14.60;99.90
19110;DHT22;9687;50.836;12.060;2024-02-15T11:04:27;14.60;99.90
19110;DHT22;9687;50.836;12.060;2024-02-15T11:06:58;14.60;99.90
19110;DHT22;9687;50.836;12.060;2024-02-15T11:09:28;14.70;99.90
19110;DHT22;9687;50.836;12.060;2024-02-15T11:11:58;14.70;99.90
19110;DHT22;9687;50.836;12.060;2024-02-15T11:14:29;14.70;99.90
19110;DHT22;9687;50.836;12.060;2024-02-15T11:16:58;14.70;99.90
19110;DHT22;9687;50.836;12.060;2024-02-15T11:22:14;14.70;99.80
19110;DHT22;9687;50.836;12.060;2024-02-15T11:24:48;14.70;99.80
19110;DHT22;9687;50.836;12.060;2024-02-15T11:27:27;14.70;99.80
19110;DHT22;9687;50.836;12.060;2024-02-15T11:29:57;14.70;99.70
19110;DHT22;9687;50.836;12.060;2024-02-15T11:32:33;14.70;99.70
19110;DHT22;9687;50.836;12.060;2024-02-15T11:35:03;14.80;99.70
19110;DHT22;9687;50.836;12.060;2024-02-15T11:37:53;14.80;99.70
19110;DHT22;9687;50.836;12.060;2024-02-15T11:40:22;14.80;99.70
19110;DHT22;9687;50.836;12.060;2024-02-15T11:42:52;14.80;99.70
19110;DHT22;9687;50.836;12.060;2024-02-15T11:45:20;14.80;99.60
19110;DHT22;9687;50.836;12.060;2024-02-15T11:47:49;14.90;99.60
19110;DHT22;9687;50.836;12.060;2024-02-15T11:50:18;14.90;99.50
19110;DHT22;9687;50.836;12.060;2024-02-15T11:52:46;14.90;99.50
19110;DHT22;9687;50.836;12.060;2024-02-15T11:55:14;14.90;99.50
19110;DHT22;9687;50.836;12.060;2024-02-15T11:57:55;14.90;99.50
19110;DHT22;9687;50.836;12.060;2024-02-15T12:00:29;14.90;99.40
19110;DHT22;9687;50.836;12.060;2024-02-15T12:03:13;15.00;99.40
19110;DHT22;9687;50.836;12.060;2024-02-15T12:05:59;15.00;99.30
19110;DHT22;9687;50.836;12.060;2024-02-15T12:08:44;14.90;99.30
19110;DHT22;9687;50.836;12.060;2024-02-15T12:11:29;15.00;99.30
19110;DHT22;9687;50.836;12.060;2024-02-15T12:14:16;15.00;99.20
19110;DHT22;9687;50.836;12.060;2024-02-15T12:17:01;15.10;99.30
19110;DHT22;9687;50.836;12.060;2024-02-15T12:19:43;15.10;99.40
19110;DHT22;9687;50.836;12.060;2024-02-15T12:22:10;15.20;99.40
19110;DHT22;9687;50.836;12.060;2024-02-15T12:24:38;15.30;99.30
19110;DHT22;9687;50.836;12.060;2024-02-15T12:27:06;15.40;99.30
19110;DHT22;9687;50.836;12.060;2024-02-15T12:29:34;15.50;99.30
19110;DHT22;9687;50.836;12.060;2024-02-15T12:32:02;15.60;99.20
19110;DHT22;9687;50.836;12.060;2024-02-15T12:34:30;15.70;99.20
19110;DHT22;9687;50.836;12.060;2024-02-15T12:37:05;15.70;99.10
19110;DHT22;9687;50.836;12.060;2024-02-15T12:39:32;15.80;99.00
19110;DHT22;9687;50.836;12.060;2024-02-15T12:42:01;15.90;98.80
19110;DHT22;9687;50.836;12.060;2024-02-15T12:44:30;15.90;98.70
19110;DHT22;9687;50.836;12.060;2024-02-15T12:47:01;15.90;98.50
19110;DHT22;9687;50.836;12.060;2024-02-15T12:49:29;15.90;98.40
19110;DHT22;9687;50.836;12.060;2024-02-15T12:54:40;15.90;98.40
19110;DHT22;9687;50.836;12.060;2024-02-15T12:57:08;16.00;98.40
19110;DHT22;9687;50.836;12.060;2024-02-15T12:59:37;15.90;98.20
19110;DHT22;9687;50.836;12.060;2024-02-15T13:02:07;16.00;98.10
19110;DHT22;9687;50.836;12.060;2024-02-15T13:04:37;15.90;98.00
19110;DHT22;9687;50.836;12.060;2024-02-15T13:07:06;15.90;98.00
19110;DHT22;9687;50.836;12.060;2024-02-15T13:09:35;16.00;98.00
19110;DHT22;9687;50.836;12.060;2024-02-15T13:12:04;15.90;97.90
19110;DHT22;9687;50.836;12.060;2024-02-15T13:14:33;16.00;97.90
19110;DHT22;9687;50.836;12.060;2024-02-15T13:17:03;16.00;97.90
19110;DHT22;9687;50.836;12.060;2024-02-15T13:19:33;16.00;97.90
19110;DHT22;9687;50.836;12.060;2024-02-15T13:22:04;16.00;97.90
19110;DHT22;9687;50.836;12.060;2024-02-15T13:24:35;16.10;97.80
19110;DHT22;9687;50.836;12.060;2024-02-15T13:27:05;16.10;97.70
19110;DHT22;9687;50.836;12.060;2024-02-15T13:29:33;16.20;97.80
19110;DHT22;9687;50.836;12.060;2024-02-15T13:32:01;16.10;97.70
19110;DHT22;9687;50.836;12.060;2024-02-15T13:34:29;16.20;97.60
19110;DHT22;9687;50.836;12.060;2024-02-15T13:37:00;16.20;97.60
19110;DHT22;9687;50.836;12.060;2024-02-15T13:39:30;16.30;97.30
19110;DHT22;9687;50.836;12.060;2024-02-15T13:44:27;16.30;97.10
19110;DHT22;9687;50.836;12.060;2024-02-15T13:46:57;16.30;96.90
19110;DHT22;9687;50.836;12.060;2024-02-15T13:49:24;16.30;96.60
19110;DHT22;9687;50.836;12.060;2024-02-15T13:51:52;16.30;96.40
19110;DHT22;9687;50.836;12.060;2024-02-15T13:54:21;16.30;96.30
19110;DHT22;9687;50.836;12.060;2024-02-15T13:56:50;16.20;96.20
19110;DHT22;9687;50.836;12.060;2024-02-15T13:59:18;16.20;96.20
19110;DHT22;9687;50.836;12.060;2024-02-15T14:01:45;16.10;96.10
19110;DHT22;9687;50.836;12.060;2024-02-15T14:04:13;16.10;96.10
19110;DHT22;9687;50.836;12.060;2024-02-15T14:06:42;16.10;96.10
19110;DHT22;9687;50.836;12.060;2024-02-15T14:09:10;16.00;96.10
19110;DHT22;9687;50.836;12.060;2024-02-15T14:11:39;16.00;96.20
19110;DHT22;9687;50.836;12.060;2024-02-15T14:14:10;16.00;96.10
19110;DHT22;9687;50.836;12.060;2024-02-15T14:16:39;16.00;96.10
19110;DHT22;9687;50.836;12.060;2024-02-15T14:19:06;15.90;96.00
19110;DHT22;9687;50.836;12.060;2024-02-15T14:21:35;15.90;96.00
19110;DHT22;9687;50.836;12.060;2024-02-15T14:24:05;15.80;95.90
19110;DHT22;9687;50.836;12.060;2024-02-15T14:26:36;15.80;95.90
19110;DHT22;9687;50.836;12.060;2024-02-15T14:29:19;15.80;96.00
19110;DHT22;9687;50.836;12.060;2024-02-15T14:31:52;15.70;95.90
19110;DHT22;9687;50.836;12.060;2024-02-15T14:34:37;15.70;95.80
19110;DHT22;9687;50.836;12.060;2024-02-15T14:37:08;15.70;95.80
19110;DHT22;9687;50.836;12.060;2024-02-15T14:39:35;15.70;95.80
19110;DHT22;9687;50.836;12.060;2024-02-15T14:42:04;15.60;95.70
19110;DHT22;9687;50.836;12.060;2024-02-15T14:44:35;15.60;95.50
19110;DHT22;9687;50.836;12.060;2024-02-15T14:47:05;15.60;95.60
19110;DHT22;9687;50.836;12.060;2024-02-15T14:49:37;15.60;95.60
19110;DHT22;9687;50.836;12.060;2024-02-15T14:52:19;15.60;95.50
19110;DHT22;9687;50.836;12.060;2024-02-15T14:54:48;15.60;95.40
19110;DHT22;9687;50.836;12.060;2024-02-15T14:57:15;15.60;95.20
19110;DHT22;9687;50.836;12.060;2024-02-15T14:59:44;15.60;95.20
19110;DHT22;9687;50.836;12.060;2024-02-15T15:02:13;15.50;95.00
19110;DHT22;9687;50.836;12.060;2024-02-15T15:04:43;15.50;95.10
19110;DHT22;9687;50.836;12.060;2024-02-15T15:07:36;15.50;94.80
19110;DHT22;9687;50.836;12.060;2024-02-15T15:10:21;15.50;94.80
19110;DHT22;9687;50.836;12.060;2024-02-15T15:13:06;15.40;94.70
19110;DHT22;9687;50.836;12.060;2024-02-15T15:15:36;15.40;94.60
19110;DHT22;9687;50.836;12.060;2024-02-15T15:18:07;15.40;94.80
19110;DHT22;9687;50.836;12.060;2024-02-15T15:20:36;15.40;94.80
19110;DHT22;9687;50.836;12.060;2024-02-15T15:23:04;15.30;94.70
19110;DHT22;9687;50.836;12.060;2024-02-15T15:25:33;15.30;94.70
19110;DHT22;9687;50.836;12.060;2024-02-15T15:28:03;15.30;94.60
19110;DHT22;9687;50.836;12.060;2024-02-15T15:30:32;15.30;94.50
19110;DHT22;9687;50.836;12.060;2024-02-15T15:33:01;15.30;94.60
19110;DHT22;9687;50.836;12.060;2024-02-15T15:35:29;15.30;94.60
19110;DHT22;9687;50.836;12.060;2024-02-15T15:37:58;15.30;94.70
19110;DHT22;9687;50.836;12.060;2024-02-15T15:40:26;15.30;94.60
19110;DHT22;9687;50.836;12.060;2024-02-15T15:42:53;15.20;94.90
19110;DHT22;9687;50.836;12.060;2024-02-15T15:45:22;15.20;94.60
19110;DHT22;9687;50.836;12.060;2024-02-15T15:47:52;15.30;94.60
19110;DHT22;9687;50.836;12.060;2024-02-15T15:50:21;15.20;94.50
19110;DHT22;9687;50.836;12.060;2024-02-15T15:52:50;15.30;94.60
19110;DHT22;9687;50.836;12.060;2024-02-15T15:55:19;15.20;94.50
19110;DHT22;9687;50.836;12.060;2024-02-15T15:57:47;15.20;94.50